createdAt,value
2018-06-10T00:00:47.561Z,34.40
2018-06-10T00:03:16.137Z,34.27
2018-06-10T00:05:44.565Z,38.47
2018-06-10T00:08:13.019Z,36.07
2018-06-10T00:10:41.463Z,36.47
2018-06-10T00:13:09.898Z,39.57
2018-06-10T00:15:38.377Z,35.27
2018-06-10T00:18:06.799Z,33.47
2018-06-10T00:20:35.239Z,36.50
2018-06-10T00:23:03.829Z,36.67
2018-06-10T00:25:32.261Z,39.53
2018-06-10T00:28:00.751Z,34.83
2018-06-10T00:30:29.181Z,34.27
2018-06-10T00:32:57.609Z,33.97
2018-06-10T00:35:26.023Z,32.43
2018-06-10T00:37:54.457Z,34.77
2018-06-10T00:40:22.916Z,32.03
2018-06-10T00:42:51.324Z,30.30
2018-06-10T00:45:19.715Z,34.90
2018-06-10T00:47:48.134Z,30.40
2018-06-10T00:50:16.656Z,30.87
2018-06-10T00:52:45.329Z,29.20
2018-06-10T00:55:13.746Z,31.97
2018-06-10T00:57:42.159Z,32.57
2018-06-10T01:00:10.617Z,34.00
2018-06-10T01:02:39.087Z,35.30
2018-06-10T01:05:07.555Z,35.30
2018-06-10T01:07:36.003Z,36.07
2018-06-10T01:10:04.458Z,37.80
2018-06-10T01:12:32.907Z,38.57
2018-06-10T01:15:01.337Z,40.47
2018-06-10T01:17:29.891Z,39.00
2018-06-10T01:19:58.417Z,41.20
2018-06-10T01:22:26.870Z,40.30
2018-06-10T01:24:55.307Z,41.30
2018-06-10T01:27:23.867Z,41.73
2018-06-10T01:31:21.797Z,36.63
2018-06-10T01:33:50.227Z,37.77
2018-06-10T01:36:18.648Z,41.77
2018-06-10T01:38:47.079Z,38.57
2018-06-10T01:41:15.498Z,39.70
2018-06-10T01:43:43.928Z,38.20
2018-06-10T01:46:12.380Z,40.03
2018-06-10T01:48:40.801Z,39.23
2018-06-10T01:51:09.204Z,37.90
2018-06-10T01:53:37.763Z,38.50
2018-06-10T01:56:06.191Z,41.57
2018-06-10T01:58:34.644Z,40.23
2018-06-10T02:01:03.098Z,42.40
2018-06-10T02:03:31.471Z,43.63
2018-06-10T02:05:59.907Z,45.93
2018-06-10T02:08:28.324Z,42.50
2018-06-10T02:10:57.190Z,43.63
2018-06-10T02:13:25.678Z,46.27
2018-06-10T02:15:54.107Z,43.80
2018-06-10T02:18:22.532Z,42.90
2018-06-10T02:20:50.934Z,43.20
2018-06-10T02:23:19.407Z,46.27
2018-06-10T02:25:47.816Z,43.83
2018-06-10T02:28:16.252Z,44.57
2018-06-10T02:30:44.708Z,47.90
2018-06-10T02:33:13.099Z,56.67
2018-06-10T02:35:41.549Z,55.80
2018-06-10T02:38:09.995Z,58.30
2018-06-10T02:40:38.444Z,55.47
2018-06-10T02:43:07.078Z,55.37
2018-06-10T02:45:35.519Z,58.80
2018-06-10T02:48:03.985Z,60.63
2018-06-10T02:50:32.411Z,64.90
2018-06-10T02:53:00.889Z,59.03
2018-06-10T02:55:29.295Z,53.97
2018-06-10T02:57:57.724Z,57.20
2018-06-10T03:00:27.106Z,57.70
2018-06-10T03:02:55.496Z,56.13
2018-06-10T03:05:23.945Z,57.00
2018-06-10T03:07:52.342Z,57.73
2018-06-10T03:14:56.040Z,53.40
2018-06-10T03:17:24.483Z,57.20
2018-06-10T03:19:52.891Z,58.73
2018-06-10T03:22:21.422Z,53.00
2018-06-10T03:24:49.872Z,47.13
2018-06-10T03:27:18.387Z,46.37
2018-06-10T03:29:46.927Z,44.43
2018-06-10T03:32:15.349Z,43.03
2018-06-10T03:34:43.869Z,42.90
2018-06-10T03:37:12.301Z,44.40
2018-06-10T03:39:40.710Z,43.40
2018-06-10T03:42:09.167Z,38.77
2018-06-10T03:44:37.588Z,38.70
2018-06-10T03:47:06.021Z,36.00
2018-06-10T03:49:34.622Z,37.23
2018-06-10T03:52:03.137Z,36.83
2018-06-10T03:54:31.568Z,37.40
2018-06-10T03:57:00.030Z,34.90
2018-06-10T03:59:28.480Z,34.23
2018-06-10T04:01:56.900Z,34.00
2018-06-10T04:04:25.326Z,34.43
2018-06-10T04:06:53.761Z,35.30
2018-06-10T04:09:22.424Z,40.07
2018-06-10T04:11:50.900Z,36.80
2018-06-10T04:14:19.499Z,33.40
2018-06-10T04:16:47.933Z,33.37
2018-06-10T04:19:16.421Z,31.47
2018-06-10T04:21:44.828Z,30.10
2018-06-10T04:24:13.316Z,30.50
2018-06-10T04:26:42.649Z,33.20
2018-06-10T04:29:11.092Z,30.67
2018-06-10T04:31:39.516Z,31.10
2018-06-10T04:34:07.932Z,30.73
2018-06-10T04:36:36.481Z,32.30
2018-06-10T04:39:07.014Z,31.27
2018-06-10T04:41:35.468Z,28.90
2018-06-10T04:44:04.131Z,30.40
2018-06-10T04:46:32.543Z,29.93
2018-06-10T04:49:01.028Z,29.03
2018-06-10T04:51:29.535Z,27.50
2018-06-10T04:53:57.958Z,27.40
2018-06-10T04:56:26.391Z,26.90
2018-06-10T04:58:54.955Z,28.33
2018-06-10T05:01:23.432Z,27.57
2018-06-10T05:03:51.904Z,31.00
2018-06-10T05:06:20.339Z,30.47
2018-06-10T05:08:48.744Z,32.67
2018-06-10T05:11:17.171Z,32.47
2018-06-10T05:13:45.591Z,31.13
2018-06-10T05:16:14.237Z,31.63
2018-06-10T05:18:42.738Z,31.80
2018-06-10T05:21:11.170Z,31.07
2018-06-10T05:23:39.582Z,33.63
2018-06-10T05:26:08.061Z,33.43
2018-06-10T05:28:36.511Z,35.37
2018-06-10T05:32:34.300Z,38.30
2018-06-10T05:35:02.781Z,38.53
2018-06-10T05:37:31.210Z,42.17
2018-06-10T05:39:59.680Z,38.90
2018-06-10T05:42:28.116Z,39.20
2018-06-10T05:44:56.577Z,40.73
2018-06-10T05:47:25.012Z,40.40
2018-06-10T05:49:53.406Z,41.13
2018-06-10T05:52:22.047Z,41.90
2018-06-10T05:54:50.479Z,41.17
2018-06-10T05:57:18.920Z,40.40
2018-06-10T05:59:47.391Z,43.07
2018-06-10T06:02:15.844Z,39.80
2018-06-10T06:04:44.272Z,39.90
2018-06-10T06:07:12.753Z,40.27
2018-06-10T06:09:41.156Z,38.87
2018-06-10T06:12:09.564Z,39.33
2018-06-10T06:14:37.966Z,39.47
2018-06-10T06:17:06.436Z,36.90
2018-06-10T06:19:34.834Z,38.30
2018-06-10T06:22:03.252Z,40.33
2018-06-10T06:24:31.703Z,39.80
2018-06-10T06:27:00.272Z,37.10
2018-06-10T06:29:28.727Z,40.80
2018-06-10T06:31:57.171Z,39.53
2018-06-10T06:34:25.658Z,41.70
2018-06-10T06:36:54.075Z,37.90
2018-06-10T06:39:22.503Z,39.90
2018-06-10T06:41:50.967Z,39.50
2018-06-10T06:44:19.415Z,38.17
2018-06-10T06:46:47.851Z,39.60
2018-06-10T06:49:16.276Z,37.63
2018-06-10T06:51:44.711Z,38.27
2018-06-10T06:54:13.151Z,41.70
2018-06-10T06:56:41.539Z,40.50
2018-06-10T06:59:10.024Z,38.97
2018-06-10T07:01:38.827Z,40.60
2018-06-10T07:04:07.335Z,42.43
2018-06-10T07:06:35.746Z,44.40
2018-06-10T07:09:06.047Z,41.47
2018-06-10T07:11:35.047Z,42.90
2018-06-10T07:14:03.479Z,41.80
2018-06-10T07:16:32.121Z,38.67
2018-06-10T07:19:00.547Z,40.80
2018-06-10T07:21:29.184Z,34.87
2018-06-10T07:23:57.630Z,37.10
2018-06-10T07:26:26.283Z,36.83
2018-06-10T07:28:54.963Z,37.10
2018-06-10T07:31:23.403Z,36.80
2018-06-10T07:33:52.036Z,34.17
2018-06-10T07:36:20.454Z,35.43
2018-06-10T07:38:48.892Z,36.00
2018-06-10T07:41:17.494Z,33.00
2018-06-10T07:43:45.925Z,32.30
2018-06-10T07:46:14.367Z,33.90
2018-06-10T07:48:42.810Z,31.30
2018-06-10T07:51:11.370Z,34.23
2018-06-10T07:53:39.784Z,31.37
2018-06-10T07:56:08.200Z,29.07
2018-06-10T07:58:36.780Z,31.37
2018-06-10T08:01:05.220Z,26.13
2018-06-10T08:03:33.715Z,25.53
2018-06-10T08:06:02.128Z,25.17
2018-06-10T08:08:30.560Z,23.87
2018-06-10T08:10:58.966Z,23.90
2018-06-10T08:13:27.359Z,26.90
2018-06-10T08:15:55.851Z,24.90
2018-06-10T08:18:24.339Z,27.73
2018-06-10T08:20:52.837Z,27.30
2018-06-10T08:23:21.444Z,26.10
2018-06-10T08:25:50.018Z,26.00
2018-06-10T08:28:18.500Z,26.40
2018-06-10T08:30:46.926Z,27.50
2018-06-10T08:33:15.381Z,28.30
2018-06-10T08:35:43.803Z,28.17
2018-06-10T08:38:12.267Z,26.70
2018-06-10T08:40:40.722Z,29.00
2018-06-10T08:43:09.168Z,28.20
2018-06-10T08:45:37.627Z,28.60
2018-06-10T08:48:06.111Z,27.07
2018-06-10T08:50:34.674Z,25.67
2018-06-10T08:53:03.076Z,26.20
2018-06-10T08:55:31.549Z,25.00
2018-06-10T08:57:59.983Z,26.00
2018-06-10T09:00:28.400Z,24.70
2018-06-10T09:02:56.950Z,27.17
2018-06-10T09:05:25.268Z,26.53
2018-06-10T09:07:53.695Z,26.03
2018-06-10T09:10:22.207Z,26.10
2018-06-10T09:12:50.756Z,27.13
2018-06-10T09:15:19.511Z,28.83
2018-06-10T09:17:47.897Z,26.27
2018-06-10T09:20:16.310Z,26.60
2018-06-10T09:22:44.784Z,27.80
2018-06-10T09:25:13.476Z,27.97
2018-06-10T09:27:41.895Z,26.27
2018-06-10T09:30:10.343Z,26.27
2018-06-10T09:32:38.756Z,21.57
2018-06-10T09:35:07.161Z,16.17
2018-06-10T09:37:35.715Z,20.70
2018-06-10T09:40:04.425Z,20.03
2018-06-10T09:42:32.880Z,20.83
2018-06-10T09:45:01.319Z,19.70
2018-06-10T09:47:29.852Z,20.60
2018-06-10T09:49:58.310Z,21.70
2018-06-10T09:52:27.046Z,19.93
2018-06-10T09:54:55.501Z,20.23
2018-06-10T09:57:23.983Z,20.17
2018-06-10T10:01:21.779Z,19.30
2018-06-10T10:03:50.188Z,21.20
2018-06-10T10:06:18.623Z,20.17
2018-06-10T10:08:47.273Z,18.97
2018-06-10T10:11:15.913Z,20.67
2018-06-10T10:13:44.328Z,17.30
2018-06-10T10:16:12.919Z,17.20
2018-06-10T10:18:41.333Z,15.50
2018-06-10T10:21:09.735Z,15.30
2018-06-10T10:23:38.252Z,20.23
2018-06-10T10:26:06.694Z,15.50
2018-06-10T10:28:35.218Z,11.93
2018-06-10T10:31:03.647Z,11.37
2018-06-10T10:33:32.215Z,11.73
2018-06-10T10:36:00.652Z,11.47
2018-06-10T10:38:29.095Z,11.10
2018-06-10T10:40:57.512Z,10.47
2018-06-10T10:43:26.109Z,12.63
2018-06-10T10:45:54.607Z,11.97
2018-06-10T10:48:23.042Z,11.63
2018-06-10T10:50:51.430Z,10.80
2018-06-10T10:53:19.895Z,12.40
2018-06-10T10:55:48.291Z,12.20
2018-06-10T10:58:16.707Z,14.67
2018-06-10T11:00:45.143Z,12.63
2018-06-10T11:03:13.772Z,13.70
2018-06-10T11:05:42.215Z,15.10
2018-06-10T11:08:10.729Z,15.40
2018-06-10T11:10:39.175Z,12.90
2018-06-10T11:13:07.588Z,11.37
2018-06-10T11:15:36.010Z,10.70
2018-06-10T11:18:04.423Z,7.33
2018-06-10T11:20:32.817Z,8.17
2018-06-10T11:23:01.256Z,8.87
2018-06-10T11:25:29.699Z,11.27
2018-06-10T11:27:58.109Z,10.10
2018-06-10T11:30:26.547Z,9.97
2018-06-10T11:32:54.946Z,8.23
2018-06-10T11:35:23.348Z,7.03
2018-06-10T11:37:51.747Z,8.93
2018-06-10T11:40:20.155Z,8.23
2018-06-10T11:42:48.560Z,7.70
2018-06-10T11:45:17.003Z,7.50
2018-06-10T11:47:45.416Z,7.43
2018-06-10T11:50:14.691Z,7.43
2018-06-10T11:52:43.178Z,6.60
2018-06-10T11:55:11.609Z,11.63
2018-06-10T11:57:40.067Z,7.60
2018-06-10T12:00:08.703Z,7.10
2018-06-10T12:02:37.340Z,7.20
2018-06-10T12:05:05.767Z,7.70
2018-06-10T12:07:34.183Z,7.27
2018-06-10T12:10:02.627Z,6.40
2018-06-10T12:12:31.184Z,6.60
2018-06-10T12:14:59.660Z,6.00
2018-06-10T12:17:28.288Z,6.97
2018-06-10T12:19:56.723Z,7.30
2018-06-10T12:22:25.127Z,8.87
2018-06-10T12:24:53.568Z,7.10
2018-06-10T12:27:23.067Z,8.60
2018-06-10T12:29:51.471Z,5.90
2018-06-10T12:32:19.907Z,6.53
2018-06-10T12:34:48.451Z,7.20
2018-06-10T12:37:17.210Z,6.50
2018-06-10T12:39:45.651Z,6.03
2018-06-10T12:42:14.083Z,7.03
2018-06-10T12:44:42.557Z,6.43
2018-06-10T12:47:11.004Z,6.53
2018-06-10T12:56:23.719Z,6.00
2018-06-10T12:58:52.128Z,6.60
2018-06-10T13:01:20.541Z,6.23
2018-06-10T13:03:49.548Z,7.40
2018-06-10T13:06:18.158Z,6.87
2018-06-10T13:08:46.571Z,7.43
2018-06-10T13:11:14.968Z,6.90
2018-06-10T13:13:43.443Z,7.07
2018-06-10T13:16:11.847Z,7.27
2018-06-10T13:18:41.302Z,6.83
2018-06-10T13:21:09.852Z,7.53
2018-06-10T13:23:38.349Z,6.13
2018-06-10T13:26:06.795Z,5.93
2018-06-10T13:28:35.240Z,6.37
2018-06-10T13:31:03.745Z,6.83
2018-06-10T13:33:32.179Z,7.70
2018-06-10T13:36:00.591Z,7.20
2018-06-10T13:38:29.023Z,7.60
2018-06-10T13:40:57.424Z,7.73
2018-06-10T13:43:25.896Z,7.77
2018-06-10T13:45:54.320Z,8.03
2018-06-10T13:48:22.885Z,7.00
2018-06-10T13:50:51.624Z,7.83
2018-06-10T13:53:20.036Z,7.97
2018-06-10T13:55:48.495Z,6.07
2018-06-10T13:58:17.227Z,6.80
2018-06-10T14:00:45.673Z,7.00
2018-06-10T14:03:14.100Z,6.80
2018-06-10T14:05:42.519Z,7.13
2018-06-10T14:08:11.055Z,7.40
2018-06-10T14:10:39.480Z,5.80
2018-06-10T14:13:07.984Z,6.43
2018-06-10T14:15:36.387Z,7.20
2018-06-10T14:18:04.942Z,6.03
2018-06-10T14:20:33.407Z,6.60
2018-06-10T14:23:01.812Z,6.40
2018-06-10T14:25:30.298Z,7.17
2018-06-10T14:27:59.031Z,6.80
2018-06-10T14:30:27.542Z,7.00
2018-06-10T14:32:55.972Z,8.40
2018-06-10T14:35:24.395Z,7.23
2018-06-10T14:37:52.871Z,7.73
2018-06-10T14:40:21.271Z,7.00
2018-06-10T14:42:49.686Z,7.70
2018-06-10T14:45:18.132Z,6.70
2018-06-10T14:47:46.734Z,7.07
2018-06-10T14:50:15.187Z,8.33
2018-06-10T14:52:43.587Z,7.40
2018-06-10T14:55:12.034Z,7.20
2018-06-10T14:57:40.464Z,7.50
2018-06-10T15:00:08.992Z,8.17
2018-06-10T15:02:37.591Z,7.10
2018-06-10T15:05:06.433Z,7.57
2018-06-10T15:07:34.867Z,6.97
2018-06-10T15:10:03.435Z,7.60
2018-06-10T15:12:32.304Z,6.50
2018-06-10T15:15:00.724Z,6.77
2018-06-10T15:17:29.189Z,5.73
2018-06-10T15:19:57.619Z,6.20
2018-06-10T15:22:26.065Z,6.83
2018-06-10T15:24:54.542Z,6.20
2018-06-10T15:27:22.949Z,6.77
2018-06-10T15:29:51.360Z,6.73
2018-06-10T15:32:19.762Z,6.97
2018-06-10T15:34:48.198Z,6.67
2018-06-10T15:37:16.787Z,6.77
2018-06-10T15:39:45.504Z,6.53
2018-06-10T15:42:13.943Z,5.90
2018-06-10T15:44:42.402Z,6.20
2018-06-10T15:47:10.814Z,6.20
2018-06-10T15:49:39.231Z,7.37
2018-06-10T15:52:07.864Z,7.80
2018-06-10T15:54:36.266Z,7.20
2018-06-10T15:57:04.773Z,6.80
2018-06-10T15:59:33.374Z,6.60
2018-06-10T16:02:02.153Z,6.83
2018-06-10T16:04:31.152Z,7.00
2018-06-10T16:06:59.596Z,6.43
2018-06-10T16:09:28.051Z,6.73
2018-06-10T16:11:56.463Z,6.77
2018-06-10T16:14:24.924Z,6.90
2018-06-10T16:16:53.699Z,7.50
2018-06-10T16:19:22.527Z,8.43
2018-06-10T16:21:51.041Z,7.80
2018-06-10T16:24:19.458Z,8.87
2018-06-10T16:26:47.888Z,7.50
2018-06-10T16:29:16.411Z,7.73
2018-06-10T16:31:44.833Z,7.20
2018-06-10T16:34:13.309Z,7.97
2018-06-10T16:36:41.726Z,7.53
2018-06-10T16:39:10.156Z,7.50
2018-06-10T16:41:38.633Z,7.20
2018-06-10T16:44:07.115Z,7.97
2018-06-10T16:46:35.570Z,8.13
2018-06-10T16:49:04.015Z,8.03
2018-06-10T16:51:32.423Z,8.30
2018-06-10T16:54:00.920Z,8.23
2018-06-10T16:56:29.651Z,7.47
2018-06-10T16:58:58.313Z,7.73
2018-06-10T17:01:27.181Z,7.83
2018-06-10T17:03:55.707Z,7.30
2018-06-10T17:06:24.123Z,7.93
2018-06-10T17:08:52.834Z,7.57
2018-06-10T17:11:21.295Z,8.10
2018-06-10T17:13:49.816Z,8.03
2018-06-10T17:16:18.271Z,8.23
2018-06-10T17:18:46.913Z,8.47
2018-06-10T17:21:15.642Z,7.90
2018-06-10T17:23:44.323Z,9.97
2018-06-10T17:26:12.768Z,9.00
2018-06-10T17:28:41.165Z,8.47
2018-06-10T17:31:09.738Z,9.33
2018-06-10T17:35:07.521Z,9.80
2018-06-10T17:37:36.316Z,9.20
2018-06-10T17:40:05.675Z,9.10
2018-06-10T17:42:34.128Z,9.23
2018-06-10T17:45:02.739Z,9.17
2018-06-10T17:47:31.218Z,9.97
2018-06-10T17:49:59.611Z,9.43
2018-06-10T17:52:28.012Z,10.20
2018-06-10T17:54:56.477Z,9.90
2018-06-10T17:57:24.906Z,10.50
2018-06-10T17:59:53.663Z,10.50
2018-06-10T18:02:22.136Z,10.20
2018-06-10T18:04:50.947Z,11.70
2018-06-10T18:07:19.458Z,10.40
2018-06-10T18:09:47.853Z,11.23
2018-06-10T18:12:16.260Z,11.30
2018-06-10T18:14:44.667Z,10.87
2018-06-10T18:17:13.119Z,10.57
2018-06-10T18:19:41.546Z,10.67
2018-06-10T18:22:09.983Z,12.20
2018-06-10T18:24:38.392Z,11.40
2018-06-10T18:27:06.876Z,12.00
2018-06-10T18:29:35.328Z,11.70
2018-06-10T18:32:04.054Z,10.73
2018-06-10T18:34:32.491Z,13.33
2018-06-10T18:37:00.927Z,13.97
2018-06-10T18:39:29.361Z,13.20
2018-06-10T18:41:57.793Z,12.93
2018-06-10T18:44:26.502Z,13.60
2018-06-10T18:46:55.204Z,13.13
2018-06-10T18:49:23.663Z,13.77
2018-06-10T18:51:52.099Z,15.27
2018-06-10T18:54:20.617Z,13.20
2018-06-10T18:56:49.039Z,14.07
2018-06-10T18:59:17.504Z,15.30
2018-06-10T19:01:45.985Z,14.60
2018-06-10T19:04:14.426Z,13.80
2018-06-10T19:06:42.880Z,15.33
2018-06-10T19:09:11.366Z,14.43
2018-06-10T19:11:39.839Z,14.90
2018-06-10T19:14:08.403Z,14.90
2018-06-10T19:16:36.927Z,14.93
2018-06-10T19:19:05.396Z,14.07
2018-06-10T19:21:33.828Z,14.63
2018-06-10T19:24:02.253Z,14.43
2018-06-10T19:26:30.660Z,15.80
2018-06-10T19:28:59.108Z,15.27
2018-06-10T19:31:27.590Z,14.70
2018-06-10T19:33:55.993Z,15.00
2018-06-10T19:36:24.476Z,15.03
2018-06-10T19:38:52.983Z,15.73
2018-06-10T19:41:21.400Z,16.97
2018-06-10T19:43:50.152Z,16.47
2018-06-10T19:46:18.595Z,15.93
2018-06-10T19:48:47.174Z,16.30
2018-06-10T19:51:15.643Z,16.90
2018-06-10T19:53:44.103Z,14.57
2018-06-10T19:56:12.559Z,15.53
2018-06-10T19:58:41.011Z,15.13
2018-06-10T20:01:09.736Z,15.77
2018-06-10T20:03:38.435Z,14.97
2018-06-10T20:06:07.244Z,13.80
2018-06-10T20:08:35.667Z,14.60
2018-06-10T20:11:04.148Z,14.47
2018-06-10T20:13:32.776Z,14.50
2018-06-10T20:16:01.214Z,13.47
2018-06-10T20:18:29.627Z,14.20
2018-06-10T20:20:58.063Z,12.87
2018-06-10T20:23:26.455Z,13.40
2018-06-10T20:25:55.053Z,13.67
2018-06-10T20:28:23.488Z,14.43
2018-06-10T20:30:51.939Z,14.20
2018-06-10T20:33:20.863Z,14.53
2018-06-10T20:35:49.320Z,13.93
2018-06-10T20:38:17.802Z,14.40
2018-06-10T20:40:46.582Z,15.13
2018-06-10T20:43:15.018Z,14.87
2018-06-10T20:45:43.465Z,13.90
2018-06-10T20:48:11.908Z,17.00
2018-06-10T20:50:40.325Z,16.20
2018-06-10T20:53:08.712Z,16.00
2018-06-10T20:55:37.195Z,16.40
2018-06-10T20:58:05.654Z,15.60
2018-06-10T21:00:34.263Z,15.13
2018-06-10T21:03:02.771Z,16.33
2018-06-10T21:05:31.204Z,17.53
2018-06-10T21:07:59.681Z,44.97
2018-06-10T21:10:28.073Z,26.17
2018-06-10T21:12:56.620Z,18.30
2018-06-10T21:15:25.165Z,17.73
2018-06-10T21:17:53.611Z,16.90
2018-06-10T21:20:22.039Z,15.80
2018-06-10T21:22:50.449Z,17.93
2018-06-10T21:25:18.911Z,16.33
2018-06-10T21:27:47.326Z,16.60
2018-06-10T21:30:16.223Z,15.57
2018-06-10T21:32:44.653Z,15.70
2018-06-10T21:35:13.074Z,18.60
2018-06-10T21:37:41.583Z,18.90
2018-06-10T21:40:10.015Z,17.60
2018-06-10T21:42:38.458Z,15.70
2018-06-10T21:45:06.880Z,16.10
2018-06-10T21:47:35.468Z,15.60
2018-06-10T21:50:03.910Z,15.57
2018-06-10T21:52:32.331Z,13.77
2018-06-10T21:55:00.767Z,15.83
2018-06-10T21:57:29.143Z,15.60
2018-06-10T21:59:57.569Z,15.60
2018-06-10T22:02:26.205Z,15.57
2018-06-10T22:04:54.618Z,15.83
2018-06-10T22:07:23.098Z,16.47
2018-06-10T22:09:51.552Z,14.80
2018-06-10T22:12:19.952Z,16.17
2018-06-10T22:14:48.376Z,21.77
2018-06-10T22:17:16.794Z,16.10
2018-06-10T22:19:45.707Z,16.10
2018-06-10T22:22:14.140Z,15.10
2018-06-10T22:24:42.564Z,14.30
2018-06-10T22:27:11.323Z,14.73
2018-06-10T22:29:39.742Z,15.27
2018-06-10T22:32:08.230Z,15.57
2018-06-10T22:34:36.639Z,17.50
2018-06-10T22:37:05.467Z,15.57
2018-06-10T22:39:34.119Z,16.90
2018-06-10T22:42:02.556Z,16.03
2018-06-10T22:44:31.459Z,15.50
2018-06-10T22:46:59.873Z,15.00
2018-06-10T22:49:28.324Z,15.90
2018-06-10T22:51:56.767Z,16.80
2018-06-10T22:54:41.509Z,17.07
2018-06-10T22:57:10.177Z,16.90
2018-06-10T22:59:38.948Z,16.87
2018-06-10T23:02:08.559Z,16.73
2018-06-10T23:04:37.040Z,16.77
2018-06-10T23:07:05.901Z,17.07
2018-06-10T23:09:34.354Z,16.60
2018-06-10T23:12:02.820Z,18.13
2018-06-10T23:14:31.431Z,17.63
2018-06-10T23:16:59.863Z,17.53
2018-06-10T23:19:28.335Z,17.60
2018-06-10T23:21:56.760Z,18.83
2018-06-10T23:24:25.203Z,17.60
2018-06-10T23:26:53.920Z,18.20
2018-06-10T23:29:22.837Z,18.30
2018-06-10T23:31:51.243Z,19.07
2018-06-10T23:34:19.667Z,19.20
2018-06-10T23:36:48.140Z,20.00
2018-06-10T23:39:16.559Z,19.93
2018-06-10T23:41:45.048Z,18.47
2018-06-10T23:44:13.477Z,20.27
2018-06-10T23:46:41.884Z,19.20
2018-06-10T23:49:10.453Z,19.40
2018-06-10T23:51:38.887Z,18.90
2018-06-10T23:54:07.331Z,20.60
2018-06-10T23:56:35.809Z,20.00
2018-06-10T23:59:04.229Z,20.17
